sensor_id;sensor_type;location;lat;lon;timestamp;P1;durP1;ratioP1;P2;durP2;ratioP2
53843;SDS011;39744;53.314;5.710;2023-05-14T00:00:01;24.60;;;12.23;;
53843;SDS011;39744;53.314;5.710;2023-05-14T00:02:28;28.00;;;12.02;;
53843;SDS011;39744;53.314;5.710;2023-05-14T00:04:54;23.73;;;12.27;;
53843;SDS011;39744;53.314;5.710;2023-05-14T00:07:20;21.10;;;11.77;;
53843;SDS011;39744;53.314;5.710;2023-05-14T00:09:46;25.67;;;11.32;;
53843;SDS011;39744;53.314;5.710;2023-05-14T00:12:12;19.58;;;9.98;;
53843;SDS011;39744;53.314;5.710;2023-05-14T00:14:38;19.88;;;9.88;;
53843;SDS011;39744;53.314;5.710;2023-05-14T00:17:07;17.73;;;9.35;;
53843;SDS011;39744;53.314;5.710;2023-05-14T00:19:33;27.05;;;10.02;;
53843;SDS011;39744;53.314;5.710;2023-05-14T00:22:00;23.40;;;10.75;;
53843;SDS011;39744;53.314;5.710;2023-05-14T00:24:26;19.45;;;10.73;;
53843;SDS011;39744;53.314;5.710;2023-05-14T00:26:52;25.98;;;11.80;;
53843;SDS011;39744;53.314;5.710;2023-05-14T00:29:18;29.70;;;12.77;;
53843;SDS011;39744;53.314;5.710;2023-05-14T00:31:44;29.40;;;14.65;;
53843;SDS011;39744;53.314;5.710;2023-05-14T00:34:10;26.92;;;14.20;;
53843;SDS011;39744;53.314;5.710;2023-05-14T00:36:36;25.08;;;13.40;;
53843;SDS011;39744;53.314;5.710;2023-05-14T00:39:02;26.75;;;12.52;;
53843;SDS011;39744;53.314;5.710;2023-05-14T00:41:28;26.20;;;11.85;;
53843;SDS011;39744;53.314;5.710;2023-05-14T00:43:54;23.00;;;11.30;;
53843;SDS011;39744;53.314;5.710;2023-05-14T00:46:20;22.33;;;10.10;;
53843;SDS011;39744;53.314;5.710;2023-05-14T00:48:46;25.50;;;12.00;;
53843;SDS011;39744;53.314;5.710;2023-05-14T00:51:13;26.48;;;12.13;;
53843;SDS011;39744;53.314;5.710;2023-05-14T00:53:39;26.15;;;13.45;;
53843;SDS011;39744;53.314;5.710;2023-05-14T00:56:05;26.40;;;13.23;;
53843;SDS011;39744;53.314;5.710;2023-05-14T00:58:32;23.00;;;12.25;;
53843;SDS011;39744;53.314;5.710;2023-05-14T01:00:58;28.92;;;12.90;;
53843;SDS011;39744;53.314;5.710;2023-05-14T01:03:24;25.63;;;11.50;;
53843;SDS011;39744;53.314;5.710;2023-05-14T01:08:23;21.75;;;11.30;;
53843;SDS011;39744;53.314;5.710;2023-05-14T01:10:51;26.33;;;10.75;;
53843;SDS011;39744;53.314;5.710;2023-05-14T01:13:19;25.27;;;10.90;;
53843;SDS011;39744;53.314;5.710;2023-05-14T01:15:47;23.02;;;11.35;;
53843;SDS011;39744;53.314;5.710;2023-05-14T01:18:15;28.90;;;13.25;;
53843;SDS011;39744;53.314;5.710;2023-05-14T01:20:43;26.02;;;13.35;;
53843;SDS011;39744;53.314;5.710;2023-05-14T01:23:09;27.08;;;13.30;;
53843;SDS011;39744;53.314;5.710;2023-05-14T01:25:35;23.60;;;12.68;;
53843;SDS011;39744;53.314;5.710;2023-05-14T01:28:09;26.40;;;14.38;;
53843;SDS011;39744;53.314;5.710;2023-05-14T01:30:56;23.85;;;12.98;;
53843;SDS011;39744;53.314;5.710;2023-05-14T01:33:24;20.15;;;11.98;;
53843;SDS011;39744;53.314;5.710;2023-05-14T01:35:50;31.30;;;13.02;;
53843;SDS011;39744;53.314;5.710;2023-05-14T01:38:17;26.02;;;13.88;;
53843;SDS011;39744;53.314;5.710;2023-05-14T01:40:44;24.33;;;12.88;;
53843;SDS011;39744;53.314;5.710;2023-05-14T01:43:11;25.08;;;13.38;;
53843;SDS011;39744;53.314;5.710;2023-05-14T01:45:37;25.10;;;13.25;;
53843;SDS011;39744;53.314;5.710;2023-05-14T01:48:04;23.73;;;12.70;;
53843;SDS011;39744;53.314;5.710;2023-05-14T01:50:30;20.42;;;11.10;;
53843;SDS011;39744;53.314;5.710;2023-05-14T01:52:56;27.58;;;12.50;;
53843;SDS011;39744;53.314;5.710;2023-05-14T01:55:22;27.45;;;12.95;;
53843;SDS011;39744;53.314;5.710;2023-05-14T01:57:49;21.05;;;11.55;;
53843;SDS011;39744;53.314;5.710;2023-05-14T02:00:15;25.25;;;12.07;;
53843;SDS011;39744;53.314;5.710;2023-05-14T02:02:41;24.55;;;11.00;;
53843;SDS011;39744;53.314;5.710;2023-05-14T02:05:09;20.00;;;10.90;;
53843;SDS011;39744;53.314;5.710;2023-05-14T02:07:35;22.08;;;10.18;;
53843;SDS011;39744;53.314;5.710;2023-05-14T02:10:01;19.17;;;10.02;;
53843;SDS011;39744;53.314;5.710;2023-05-14T02:12:27;18.58;;;9.93;;
53843;SDS011;39744;53.314;5.710;2023-05-14T02:14:53;17.15;;;9.48;;
53843;SDS011;39744;53.314;5.710;2023-05-14T02:17:19;19.92;;;9.98;;
53843;SDS011;39744;53.314;5.710;2023-05-14T02:19:45;24.05;;;10.77;;
53843;SDS011;39744;53.314;5.710;2023-05-14T02:22:11;26.25;;;9.25;;
53843;SDS011;39744;53.314;5.710;2023-05-14T02:24:37;19.80;;;9.77;;
53843;SDS011;39744;53.314;5.710;2023-05-14T02:27:04;17.88;;;7.90;;
53843;SDS011;39744;53.314;5.710;2023-05-14T02:29:30;22.05;;;8.80;;
53843;SDS011;39744;53.314;5.710;2023-05-14T02:31:56;23.25;;;8.43;;
53843;SDS011;39744;53.314;5.710;2023-05-14T02:34:22;19.35;;;8.60;;
53843;SDS011;39744;53.314;5.710;2023-05-14T02:36:48;20.10;;;8.10;;
53843;SDS011;39744;53.314;5.710;2023-05-14T02:39:14;24.27;;;9.32;;
53843;SDS011;39744;53.314;5.710;2023-05-14T02:41:40;20.23;;;9.20;;
53843;SDS011;39744;53.314;5.710;2023-05-14T02:44:06;20.65;;;9.40;;
53843;SDS011;39744;53.314;5.710;2023-05-14T02:46:33;24.08;;;10.02;;
53843;SDS011;39744;53.314;5.710;2023-05-14T02:48:59;24.92;;;9.45;;
53843;SDS011;39744;53.314;5.710;2023-05-14T02:51:26;19.98;;;9.18;;
53843;SDS011;39744;53.314;5.710;2023-05-14T02:53:53;26.42;;;9.95;;
53843;SDS011;39744;53.314;5.710;2023-05-14T02:56:19;24.85;;;9.63;;
53843;SDS011;39744;53.314;5.710;2023-05-14T02:58:45;23.83;;;9.82;;
53843;SDS011;39744;53.314;5.710;2023-05-14T03:01:11;20.15;;;9.95;;
53843;SDS011;39744;53.314;5.710;2023-05-14T03:03:37;26.92;;;10.18;;
53843;SDS011;39744;53.314;5.710;2023-05-14T03:06:03;26.17;;;9.75;;
53843;SDS011;39744;53.314;5.710;2023-05-14T03:08:29;22.00;;;10.55;;
53843;SDS011;39744;53.314;5.710;2023-05-14T03:10:55;31.30;;;10.77;;
53843;SDS011;39744;53.314;5.710;2023-05-14T03:13:22;27.42;;;11.52;;
53843;SDS011;39744;53.314;5.710;2023-05-14T03:15:48;25.15;;;10.68;;
53843;SDS011;39744;53.314;5.710;2023-05-14T03:18:18;21.77;;;10.73;;
53843;SDS011;39744;53.314;5.710;2023-05-14T03:20:44;22.02;;;10.88;;
53843;SDS011;39744;53.314;5.710;2023-05-14T03:23:11;29.23;;;11.00;;
53843;SDS011;39744;53.314;5.710;2023-05-14T03:25:37;27.02;;;10.80;;
53843;SDS011;39744;53.314;5.710;2023-05-14T03:28:03;32.90;;;10.88;;
53843;SDS011;39744;53.314;5.710;2023-05-14T03:30:29;27.20;;;11.13;;
53843;SDS011;39744;53.314;5.710;2023-05-14T03:32:55;26.42;;;11.48;;
53843;SDS011;39744;53.314;5.710;2023-05-14T03:35:21;25.38;;;11.10;;
53843;SDS011;39744;53.314;5.710;2023-05-14T03:37:47;29.70;;;11.05;;
53843;SDS011;39744;53.314;5.710;2023-05-14T03:40:13;27.15;;;11.85;;
53843;SDS011;39744;53.314;5.710;2023-05-14T03:42:39;31.67;;;11.43;;
53843;SDS011;39744;53.314;5.710;2023-05-14T03:45:05;27.33;;;10.38;;
53843;SDS011;39744;53.314;5.710;2023-05-14T03:47:32;19.73;;;10.38;;
53843;SDS011;39744;53.314;5.710;2023-05-14T03:49:58;23.80;;;10.48;;
53843;SDS011;39744;53.314;5.710;2023-05-14T03:52:24;26.65;;;10.57;;
53843;SDS011;39744;53.314;5.710;2023-05-14T03:54:50;18.48;;;10.15;;
53843;SDS011;39744;53.314;5.710;2023-05-14T03:57:16;20.33;;;9.70;;
53843;SDS011;39744;53.314;5.710;2023-05-14T03:59:42;26.83;;;8.52;;
53843;SDS011;39744;53.314;5.710;2023-05-14T04:02:08;20.08;;;8.85;;
53843;SDS011;39744;53.314;5.710;2023-05-14T04:04:34;21.23;;;9.88;;
53843;SDS011;39744;53.314;5.710;2023-05-14T04:07:00;21.77;;;10.63;;
53843;SDS011;39744;53.314;5.710;2023-05-14T04:09:26;25.70;;;9.45;;
53843;SDS011;39744;53.314;5.710;2023-05-14T04:11:52;15.40;;;7.95;;
53843;SDS011;39744;53.314;5.710;2023-05-14T04:14:18;21.38;;;9.52;;
53843;SDS011;39744;53.314;5.710;2023-05-14T04:16:44;18.83;;;8.68;;
53843;SDS011;39744;53.314;5.710;2023-05-14T04:19:10;18.65;;;8.25;;
53843;SDS011;39744;53.314;5.710;2023-05-14T04:21:36;21.60;;;8.73;;
53843;SDS011;39744;53.314;5.710;2023-05-14T04:24:03;23.60;;;9.05;;
53843;SDS011;39744;53.314;5.710;2023-05-14T04:26:29;19.23;;;7.63;;
53843;SDS011;39744;53.314;5.710;2023-05-14T04:28:55;22.65;;;8.40;;
53843;SDS011;39744;53.314;5.710;2023-05-14T04:31:22;20.42;;;7.18;;
53843;SDS011;39744;53.314;5.710;2023-05-14T04:33:48;19.58;;;8.13;;
53843;SDS011;39744;53.314;5.710;2023-05-14T04:36:14;22.52;;;8.43;;
53843;SDS011;39744;53.314;5.710;2023-05-14T04:38:40;26.20;;;9.23;;
53843;SDS011;39744;53.314;5.710;2023-05-14T04:41:06;19.40;;;8.18;;
53843;SDS011;39744;53.314;5.710;2023-05-14T04:43:32;21.30;;;7.90;;
53843;SDS011;39744;53.314;5.710;2023-05-14T04:45:58;17.63;;;8.05;;
53843;SDS011;39744;53.314;5.710;2023-05-14T04:48:24;23.90;;;8.93;;
53843;SDS011;39744;53.314;5.710;2023-05-14T04:50:50;25.83;;;7.47;;
53843;SDS011;39744;53.314;5.710;2023-05-14T04:53:17;23.75;;;7.80;;
53843;SDS011;39744;53.314;5.710;2023-05-14T04:55:43;20.20;;;6.65;;
53843;SDS011;39744;53.314;5.710;2023-05-14T04:58:09;20.23;;;7.10;;
53843;SDS011;39744;53.314;5.710;2023-05-14T05:00:36;20.25;;;7.22;;
53843;SDS011;39744;53.314;5.710;2023-05-14T05:03:04;20.05;;;7.10;;
53843;SDS011;39744;53.314;5.710;2023-05-14T05:05:30;21.55;;;6.45;;
53843;SDS011;39744;53.314;5.710;2023-05-14T05:07:56;20.63;;;7.35;;
53843;SDS011;39744;53.314;5.710;2023-05-14T05:10:22;18.25;;;7.22;;
53843;SDS011;39744;53.314;5.710;2023-05-14T05:12:48;20.45;;;7.45;;
53843;SDS011;39744;53.314;5.710;2023-05-14T05:15:14;16.95;;;7.75;;
53843;SDS011;39744;53.314;5.710;2023-05-14T05:17:40;23.42;;;7.22;;
53843;SDS011;39744;53.314;5.710;2023-05-14T05:20:07;19.50;;;7.55;;
53843;SDS011;39744;53.314;5.710;2023-05-14T05:22:34;14.15;;;7.30;;
53843;SDS011;39744;53.314;5.710;2023-05-14T05:25:00;14.60;;;6.90;;
53843;SDS011;39744;53.314;5.710;2023-05-14T05:27:30;17.35;;;7.55;;
53843;SDS011;39744;53.314;5.710;2023-05-14T05:29:56;20.77;;;8.38;;
53843;SDS011;39744;53.314;5.710;2023-05-14T05:32:22;18.83;;;7.55;;
53843;SDS011;39744;53.314;5.710;2023-05-14T05:34:48;16.75;;;7.43;;
53843;SDS011;39744;53.314;5.710;2023-05-14T05:37:16;21.73;;;7.50;;
53843;SDS011;39744;53.314;5.710;2023-05-14T05:39:42;17.92;;;7.28;;
53843;SDS011;39744;53.314;5.710;2023-05-14T05:42:08;17.35;;;7.30;;
53843;SDS011;39744;53.314;5.710;2023-05-14T05:44:34;17.27;;;6.53;;
53843;SDS011;39744;53.314;5.710;2023-05-14T05:47:00;20.10;;;7.60;;
53843;SDS011;39744;53.314;5.710;2023-05-14T05:49:26;15.90;;;7.00;;
53843;SDS011;39744;53.314;5.710;2023-05-14T05:51:52;19.10;;;6.97;;
53843;SDS011;39744;53.314;5.710;2023-05-14T05:54:18;16.50;;;7.30;;
53843;SDS011;39744;53.314;5.710;2023-05-14T05:56:44;14.00;;;6.45;;
53843;SDS011;39744;53.314;5.710;2023-05-14T05:59:10;18.10;;;6.95;;
53843;SDS011;39744;53.314;5.710;2023-05-14T06:01:36;19.80;;;6.35;;
53843;SDS011;39744;53.314;5.710;2023-05-14T06:04:04;13.05;;;6.03;;
53843;SDS011;39744;53.314;5.710;2023-05-14T06:06:30;18.15;;;6.20;;
53843;SDS011;39744;53.314;5.710;2023-05-14T06:08:57;18.92;;;6.38;;
53843;SDS011;39744;53.314;5.710;2023-05-14T06:11:23;18.73;;;5.75;;
53843;SDS011;39744;53.314;5.710;2023-05-14T06:13:50;13.38;;;5.80;;
53843;SDS011;39744;53.314;5.710;2023-05-14T06:16:16;21.70;;;6.07;;
53843;SDS011;39744;53.314;5.710;2023-05-14T06:18:42;15.50;;;5.80;;
53843;SDS011;39744;53.314;5.710;2023-05-14T06:21:08;16.38;;;5.88;;
53843;SDS011;39744;53.314;5.710;2023-05-14T06:23:34;15.13;;;5.40;;
53843;SDS011;39744;53.314;5.710;2023-05-14T06:26:01;17.08;;;6.85;;
53843;SDS011;39744;53.314;5.710;2023-05-14T06:28:27;14.27;;;5.30;;
53843;SDS011;39744;53.314;5.710;2023-05-14T06:30:53;20.00;;;5.68;;
53843;SDS011;39744;53.314;5.710;2023-05-14T06:33:19;13.60;;;5.35;;
53843;SDS011;39744;53.314;5.710;2023-05-14T06:35:53;19.85;;;6.28;;
53843;SDS011;39744;53.314;5.710;2023-05-14T06:38:19;11.88;;;5.03;;
53843;SDS011;39744;53.314;5.710;2023-05-14T06:40:45;13.05;;;5.07;;
53843;SDS011;39744;53.314;5.710;2023-05-14T06:43:11;13.05;;;5.25;;
53843;SDS011;39744;53.314;5.710;2023-05-14T06:45:37;19.27;;;5.93;;
53843;SDS011;39744;53.314;5.710;2023-05-14T06:48:03;12.80;;;5.90;;
53843;SDS011;39744;53.314;5.710;2023-05-14T06:50:29;16.67;;;5.63;;
53843;SDS011;39744;53.314;5.710;2023-05-14T06:52:55;13.15;;;5.32;;
53843;SDS011;39744;53.314;5.710;2023-05-14T06:55:21;14.73;;;5.70;;
53843;SDS011;39744;53.314;5.710;2023-05-14T06:57:47;12.07;;;5.18;;
53843;SDS011;39744;53.314;5.710;2023-05-14T07:00:14;15.07;;;5.47;;
53843;SDS011;39744;53.314;5.710;2023-05-14T07:02:40;13.02;;;4.88;;
53843;SDS011;39744;53.314;5.710;2023-05-14T07:05:07;13.65;;;5.30;;
53843;SDS011;39744;53.314;5.710;2023-05-14T07:07:33;15.00;;;5.32;;
53843;SDS011;39744;53.314;5.710;2023-05-14T07:09:59;14.35;;;4.65;;
53843;SDS011;39744;53.314;5.710;2023-05-14T07:12:25;18.25;;;5.25;;
53843;SDS011;39744;53.314;5.710;2023-05-14T07:14:51;15.63;;;4.90;;
53843;SDS011;39744;53.314;5.710;2023-05-14T07:17:17;15.23;;;4.97;;
53843;SDS011;39744;53.314;5.710;2023-05-14T07:19:43;17.63;;;4.93;;
53843;SDS011;39744;53.314;5.710;2023-05-14T07:22:09;14.35;;;4.88;;
53843;SDS011;39744;53.314;5.710;2023-05-14T07:24:35;15.13;;;5.53;;
53843;SDS011;39744;53.314;5.710;2023-05-14T07:27:01;14.02;;;4.90;;
53843;SDS011;39744;53.314;5.710;2023-05-14T07:29:27;14.10;;;4.88;;
53843;SDS011;39744;53.314;5.710;2023-05-14T07:31:54;15.38;;;4.75;;
53843;SDS011;39744;53.314;5.710;2023-05-14T07:34:20;12.80;;;4.80;;
53843;SDS011;39744;53.314;5.710;2023-05-14T07:36:46;11.43;;;4.10;;
53843;SDS011;39744;53.314;5.710;2023-05-14T07:39:12;13.25;;;3.92;;
53843;SDS011;39744;53.314;5.710;2023-05-14T07:41:38;12.25;;;4.07;;
53843;SDS011;39744;53.314;5.710;2023-05-14T07:44:05;11.52;;;3.78;;
53843;SDS011;39744;53.314;5.710;2023-05-14T07:46:31;14.05;;;5.20;;
53843;SDS011;39744;53.314;5.710;2023-05-14T07:48:57;13.65;;;4.18;;
53843;SDS011;39744;53.314;5.710;2023-05-14T07:51:23;13.63;;;4.80;;
53843;SDS011;39744;53.314;5.710;2023-05-14T07:53:52;13.57;;;5.05;;
53843;SDS011;39744;53.314;5.710;2023-05-14T07:56:19;13.55;;;4.35;;
53843;SDS011;39744;53.314;5.710;2023-05-14T07:58:46;13.80;;;4.45;;
53843;SDS011;39744;53.314;5.710;2023-05-14T08:01:12;10.85;;;4.93;;
53843;SDS011;39744;53.314;5.710;2023-05-14T08:03:38;13.70;;;5.03;;
53843;SDS011;39744;53.314;5.710;2023-05-14T08:06:04;17.05;;;4.50;;
53843;SDS011;39744;53.314;5.710;2023-05-14T08:08:30;14.30;;;4.57;;
53843;SDS011;39744;53.314;5.710;2023-05-14T08:10:56;13.32;;;4.80;;
53843;SDS011;39744;53.314;5.710;2023-05-14T08:13:23;10.93;;;4.32;;
53843;SDS011;39744;53.314;5.710;2023-05-14T08:15:49;16.55;;;4.85;;
53843;SDS011;39744;53.314;5.710;2023-05-14T08:18:15;10.90;;;4.47;;
53843;SDS011;39744;53.314;5.710;2023-05-14T08:20:41;13.82;;;4.45;;
53843;SDS011;39744;53.314;5.710;2023-05-14T08:23:07;13.23;;;4.13;;
53843;SDS011;39744;53.314;5.710;2023-05-14T08:25:35;10.00;;;4.03;;
53843;SDS011;39744;53.314;5.710;2023-05-14T08:28:01;16.33;;;4.53;;
53843;SDS011;39744;53.314;5.710;2023-05-14T08:30:27;16.25;;;4.47;;
53843;SDS011;39744;53.314;5.710;2023-05-14T08:32:53;12.45;;;4.05;;
53843;SDS011;39744;53.314;5.710;2023-05-14T08:35:19;11.80;;;4.47;;
53843;SDS011;39744;53.314;5.710;2023-05-14T08:37:45;11.13;;;4.30;;
53843;SDS011;39744;53.314;5.710;2023-05-14T08:40:11;9.50;;;3.67;;
53843;SDS011;39744;53.314;5.710;2023-05-14T08:42:38;15.60;;;4.53;;
53843;SDS011;39744;53.314;5.710;2023-05-14T08:45:30;19.30;;;4.72;;
53843;SDS011;39744;53.314;5.710;2023-05-14T08:48:01;11.68;;;4.38;;
53843;SDS011;39744;53.314;5.710;2023-05-14T08:50:30;15.30;;;4.30;;
53843;SDS011;39744;53.314;5.710;2023-05-14T08:52:57;12.10;;;4.03;;
53843;SDS011;39744;53.314;5.710;2023-05-14T08:55:27;11.43;;;4.22;;
53843;SDS011;39744;53.314;5.710;2023-05-14T08:57:54;9.68;;;3.97;;
53843;SDS011;39744;53.314;5.710;2023-05-14T09:00:20;12.73;;;4.47;;
53843;SDS011;39744;53.314;5.710;2023-05-14T09:02:47;12.93;;;4.57;;
53843;SDS011;39744;53.314;5.710;2023-05-14T09:05:14;12.80;;;4.13;;
53843;SDS011;39744;53.314;5.710;2023-05-14T09:07:41;12.35;;;4.00;;
53843;SDS011;39744;53.314;5.710;2023-05-14T09:10:08;12.82;;;4.28;;
53843;SDS011;39744;53.314;5.710;2023-05-14T09:12:35;10.75;;;4.32;;
53843;SDS011;39744;53.314;5.710;2023-05-14T09:15:01;11.30;;;4.35;;
53843;SDS011;39744;53.314;5.710;2023-05-14T09:17:27;10.00;;;4.07;;
53843;SDS011;39744;53.314;5.710;2023-05-14T09:20:00;10.20;;;4.65;;
53843;SDS011;39744;53.314;5.710;2023-05-14T09:22:27;10.10;;;4.80;;
53843;SDS011;39744;53.314;5.710;2023-05-14T09:25:06;11.88;;;4.60;;
53843;SDS011;39744;53.314;5.710;2023-05-14T09:27:33;13.05;;;4.95;;
53843;SDS011;39744;53.314;5.710;2023-05-14T09:30:10;13.93;;;4.85;;
53843;SDS011;39744;53.314;5.710;2023-05-14T09:32:40;14.63;;;5.00;;
53843;SDS011;39744;53.314;5.710;2023-05-14T09:35:18;14.48;;;5.15;;
53843;SDS011;39744;53.314;5.710;2023-05-14T09:37:45;12.95;;;4.90;;
53843;SDS011;39744;53.314;5.710;2023-05-14T09:40:13;16.55;;;4.70;;
53843;SDS011;39744;53.314;5.710;2023-05-14T09:42:58;12.38;;;5.07;;
53843;SDS011;39744;53.314;5.710;2023-05-14T09:45:25;6.97;;;3.97;;
53843;SDS011;39744;53.314;5.710;2023-05-14T09:47:51;9.27;;;4.63;;
53843;SDS011;39744;53.314;5.710;2023-05-14T09:50:18;13.07;;;5.18;;
53843;SDS011;39744;53.314;5.710;2023-05-14T09:52:44;13.38;;;5.35;;
53843;SDS011;39744;53.314;5.710;2023-05-14T09:55:10;12.00;;;4.65;;
53843;SDS011;39744;53.314;5.710;2023-05-14T09:57:36;12.88;;;5.00;;
53843;SDS011;39744;53.314;5.710;2023-05-14T10:00:02;9.75;;;4.68;;
53843;SDS011;39744;53.314;5.710;2023-05-14T10:02:34;12.10;;;5.20;;
53843;SDS011;39744;53.314;5.710;2023-05-14T10:05:01;14.77;;;5.28;;
53843;SDS011;39744;53.314;5.710;2023-05-14T10:07:30;11.60;;;5.07;;
53843;SDS011;39744;53.314;5.710;2023-05-14T10:10:02;12.52;;;5.32;;
53843;SDS011;39744;53.314;5.710;2023-05-14T10:12:29;10.55;;;5.25;;
53843;SDS011;39744;53.314;5.710;2023-05-14T10:14:55;11.82;;;4.68;;
53843;SDS011;39744;53.314;5.710;2023-05-14T10:17:22;12.70;;;4.88;;
53843;SDS011;39744;53.314;5.710;2023-05-14T10:19:51;10.18;;;5.30;;
53843;SDS011;39744;53.314;5.710;2023-05-14T10:22:21;13.55;;;5.43;;
53843;SDS011;39744;53.314;5.710;2023-05-14T10:24:47;13.38;;;5.45;;
53843;SDS011;39744;53.314;5.710;2023-05-14T10:27:16;12.60;;;5.25;;
53843;SDS011;39744;53.314;5.710;2023-05-14T10:29:46;9.55;;;4.88;;
53843;SDS011;39744;53.314;5.710;2023-05-14T10:32:17;10.80;;;5.07;;
53843;SDS011;39744;53.314;5.710;2023-05-14T10:34:44;12.27;;;5.35;;
53843;SDS011;39744;53.314;5.710;2023-05-14T10:37:19;11.30;;;4.53;;
53843;SDS011;39744;53.314;5.710;2023-05-14T10:42:13;14.18;;;5.80;;
53843;SDS011;39744;53.314;5.710;2023-05-14T10:44:41;7.82;;;5.05;;
53843;SDS011;39744;53.314;5.710;2023-05-14T10:47:10;13.38;;;6.18;;
53843;SDS011;39744;53.314;5.710;2023-05-14T10:49:36;10.40;;;5.45;;
53843;SDS011;39744;53.314;5.710;2023-05-14T10:52:02;13.73;;;6.20;;
53843;SDS011;39744;53.314;5.710;2023-05-14T10:54:28;14.55;;;6.43;;
53843;SDS011;39744;53.314;5.710;2023-05-14T10:56:57;10.50;;;6.38;;
53843;SDS011;39744;53.314;5.710;2023-05-14T10:59:26;13.25;;;6.38;;
53843;SDS011;39744;53.314;5.710;2023-05-14T11:01:52;12.50;;;6.97;;
53843;SDS011;39744;53.314;5.710;2023-05-14T11:04:18;13.88;;;5.90;;
53843;SDS011;39744;53.314;5.710;2023-05-14T11:06:48;13.38;;;6.88;;
53843;SDS011;39744;53.314;5.710;2023-05-14T11:09:16;11.57;;;6.18;;
53843;SDS011;39744;53.314;5.710;2023-05-14T11:11:42;11.35;;;6.43;;
53843;SDS011;39744;53.314;5.710;2023-05-14T11:14:08;15.27;;;7.07;;
53843;SDS011;39744;53.314;5.710;2023-05-14T11:16:35;14.50;;;6.72;;
53843;SDS011;39744;53.314;5.710;2023-05-14T11:19:02;15.52;;;7.90;;
53843;SDS011;39744;53.314;5.710;2023-05-14T11:21:28;12.35;;;7.38;;
53843;SDS011;39744;53.314;5.710;2023-05-14T11:23:56;11.77;;;7.47;;
53843;SDS011;39744;53.314;5.710;2023-05-14T11:26:22;16.95;;;8.07;;
53843;SDS011;39744;53.314;5.710;2023-05-14T11:28:48;16.90;;;7.97;;
53843;SDS011;39744;53.314;5.710;2023-05-14T11:31:14;15.43;;;7.85;;
53843;SDS011;39744;53.314;5.710;2023-05-14T11:33:40;13.68;;;8.60;;
53843;SDS011;39744;53.314;5.710;2023-05-14T11:36:06;15.90;;;8.52;;
53843;SDS011;39744;53.314;5.710;2023-05-14T11:38:35;13.02;;;8.05;;
53843;SDS011;39744;53.314;5.710;2023-05-14T11:41:11;15.60;;;8.40;;
53843;SDS011;39744;53.314;5.710;2023-05-14T11:43:39;14.52;;;8.23;;
53843;SDS011;39744;53.314;5.710;2023-05-14T11:46:05;14.30;;;7.20;;
53843;SDS011;39744;53.314;5.710;2023-05-14T11:48:31;13.88;;;8.15;;
53843;SDS011;39744;53.314;5.710;2023-05-14T11:50:57;17.83;;;8.68;;
53843;SDS011;39744;53.314;5.710;2023-05-14T11:53:25;16.33;;;8.63;;
53843;SDS011;39744;53.314;5.710;2023-05-14T11:55:51;14.90;;;8.98;;
53843;SDS011;39744;53.314;5.710;2023-05-14T12:00:50;14.82;;;8.80;;
53843;SDS011;39744;53.314;5.710;2023-05-14T12:03:17;15.00;;;9.10;;
53843;SDS011;39744;53.314;5.710;2023-05-14T12:05:56;14.43;;;9.90;;
53843;SDS011;39744;53.314;5.710;2023-05-14T12:08:29;17.92;;;9.32;;
53843;SDS011;39744;53.314;5.710;2023-05-14T12:10:57;13.30;;;9.30;;
53843;SDS011;39744;53.314;5.710;2023-05-14T12:13:26;15.00;;;8.70;;
53843;SDS011;39744;53.314;5.710;2023-05-14T12:15:53;18.58;;;9.43;;
53843;SDS011;39744;53.314;5.710;2023-05-14T12:18:20;16.10;;;9.10;;
53843;SDS011;39744;53.314;5.710;2023-05-14T12:20:47;15.43;;;9.20;;
53843;SDS011;39744;53.314;5.710;2023-05-14T12:23:13;17.10;;;10.02;;
53843;SDS011;39744;53.314;5.710;2023-05-14T12:25:39;16.33;;;9.52;;
53843;SDS011;39744;53.314;5.710;2023-05-14T12:28:12;19.02;;;9.55;;
53843;SDS011;39744;53.314;5.710;2023-05-14T12:30:39;16.45;;;9.70;;
53843;SDS011;39744;53.314;5.710;2023-05-14T12:33:05;16.38;;;10.63;;
53843;SDS011;39744;53.314;5.710;2023-05-14T12:35:31;17.40;;;10.63;;
53843;SDS011;39744;53.314;5.710;2023-05-14T12:37:57;17.92;;;10.15;;
53843;SDS011;39744;53.314;5.710;2023-05-14T12:40:23;16.50;;;9.43;;
53843;SDS011;39744;53.314;5.710;2023-05-14T12:42:49;17.85;;;10.23;;
53843;SDS011;39744;53.314;5.710;2023-05-14T12:45:15;18.30;;;11.20;;
53843;SDS011;39744;53.314;5.710;2023-05-14T12:47:42;18.42;;;11.57;;
53843;SDS011;39744;53.314;5.710;2023-05-14T12:50:08;20.10;;;11.73;;
53843;SDS011;39744;53.314;5.710;2023-05-14T12:52:34;18.40;;;11.35;;
53843;SDS011;39744;53.314;5.710;2023-05-14T12:55:00;21.40;;;11.40;;
53843;SDS011;39744;53.314;5.710;2023-05-14T12:57:26;19.40;;;11.60;;
53843;SDS011;39744;53.314;5.710;2023-05-14T12:59:54;19.75;;;10.18;;
53843;SDS011;39744;53.314;5.710;2023-05-14T13:02:20;15.68;;;9.85;;
53843;SDS011;39744;53.314;5.710;2023-05-14T13:04:46;16.75;;;10.43;;
53843;SDS011;39744;53.314;5.710;2023-05-14T13:07:12;17.20;;;10.30;;
53843;SDS011;39744;53.314;5.710;2023-05-14T13:09:38;18.02;;;10.60;;
53843;SDS011;39744;53.314;5.710;2023-05-14T13:12:04;22.17;;;10.55;;
53843;SDS011;39744;53.314;5.710;2023-05-14T13:14:31;15.35;;;9.82;;
53843;SDS011;39744;53.314;5.710;2023-05-14T13:16:57;15.60;;;9.45;;
53843;SDS011;39744;53.314;5.710;2023-05-14T13:19:23;16.77;;;9.60;;
53843;SDS011;39744;53.314;5.710;2023-05-14T13:21:49;15.50;;;9.00;;
53843;SDS011;39744;53.314;5.710;2023-05-14T13:24:15;17.83;;;10.25;;
53843;SDS011;39744;53.314;5.710;2023-05-14T13:26:42;16.35;;;10.00;;
53843;SDS011;39744;53.314;5.710;2023-05-14T13:29:09;15.10;;;8.88;;
53843;SDS011;39744;53.314;5.710;2023-05-14T13:31:35;18.02;;;10.90;;
53843;SDS011;39744;53.314;5.710;2023-05-14T13:34:01;17.90;;;11.07;;
53843;SDS011;39744;53.314;5.710;2023-05-14T13:36:27;16.77;;;10.40;;
53843;SDS011;39744;53.314;5.710;2023-05-14T13:38:55;16.80;;;10.73;;
53843;SDS011;39744;53.314;5.710;2023-05-14T13:41:21;15.57;;;9.98;;
53843;SDS011;39744;53.314;5.710;2023-05-14T13:43:47;16.27;;;9.68;;
53843;SDS011;39744;53.314;5.710;2023-05-14T13:46:13;15.63;;;9.40;;
53843;SDS011;39744;53.314;5.710;2023-05-14T13:48:39;18.65;;;9.45;;
53843;SDS011;39744;53.314;5.710;2023-05-14T13:51:06;18.25;;;10.25;;
53843;SDS011;39744;53.314;5.710;2023-05-14T13:53:32;15.95;;;8.85;;
53843;SDS011;39744;53.314;5.710;2023-05-14T13:55:58;14.55;;;8.85;;
53843;SDS011;39744;53.314;5.710;2023-05-14T13:58:25;13.65;;;9.07;;
53843;SDS011;39744;53.314;5.710;2023-05-14T14:00:52;15.88;;;8.73;;
53843;SDS011;39744;53.314;5.710;2023-05-14T14:03:18;19.83;;;10.15;;
53843;SDS011;39744;53.314;5.710;2023-05-14T14:05:44;14.32;;;9.10;;
53843;SDS011;39744;53.314;5.710;2023-05-14T14:08:10;15.88;;;8.98;;
53843;SDS011;39744;53.314;5.710;2023-05-14T14:10:36;18.77;;;10.80;;
53843;SDS011;39744;53.314;5.710;2023-05-14T14:13:05;20.65;;;10.15;;
53843;SDS011;39744;53.314;5.710;2023-05-14T14:15:31;16.95;;;10.93;;
53843;SDS011;39744;53.314;5.710;2023-05-14T14:17:57;24.10;;;10.93;;
53843;SDS011;39744;53.314;5.710;2023-05-14T14:20:23;16.83;;;10.38;;
53843;SDS011;39744;53.314;5.710;2023-05-14T14:22:50;15.18;;;10.60;;
53843;SDS011;39744;53.314;5.710;2023-05-14T14:25:16;17.40;;;11.10;;
53843;SDS011;39744;53.314;5.710;2023-05-14T14:27:42;21.08;;;11.43;;
53843;SDS011;39744;53.314;5.710;2023-05-14T14:30:08;16.38;;;9.82;;
53843;SDS011;39744;53.314;5.710;2023-05-14T14:32:44;19.45;;;10.40;;
53843;SDS011;39744;53.314;5.710;2023-05-14T14:35:11;18.65;;;10.57;;